Moorefield, Nebraska
Current Conditions -  °F | °C
As of 10:15 AM on Thursday 30 Oct 2014 (Local Time) from KLXN Reporting Station
Clear Clear  
Wind Chill:   Ceiling: Unl
Heat Index: 10°   Visibility: 10mi
Dew Point:   Wind: 14mph
Humidity: 54%   Direction: 300°WNW
Pressure: 30.22"   Gusts: NA
Location:  40.69°N, 100.4°W
Report Text: KLXN 301515Z AUTO 30012KT 10SM CLR 10/01 A3022 RMK AO2 T00960008
Loading
Personal Weather Stations






























Interactive Weather Map
Tropical Storm Tracking
New forecast layout! Learn more

10-Day Weather Forecast

Advertisements
Track Severe Weather on mobile